SBMN/MAO METAR and TAF weather

Enter ICAO airport designator
Station Type Date Time Source
SBMN METAR 2022/06/30 01:00 UTC NOAA

SBMN 300100Z 07004KT CAVOK 28/24 Q1013


Station Type Date Time Source
SBMN Decoded METAR 2022/06/30 01:00 UTC NOAA

Manaus Aeroporto , Brazil (SBMN) 03-09S 059-59W 84M
Jun 29, 2022 - 09:00 PM EDT / 2022.06.30 0100 UTC
Wind: from the ENE (070 degrees) at 5 MPH (4 KT):0
Visibility: greater than 7 mile(s):0
Temperature: 82 F (28 C)
Dew Point: 75 F (24 C)
Relative Humidity: 78%
Pressure (altimeter): 29.91 in. Hg (1013 hPa)
ob: SBMN 300100Z 07004KT CAVOK 28/24 Q1013
cycle: 1

Station Type Date Time Source
SBMN TAF 2022/06/30 00:00 UTC NOAA

TAF SBMN 292100Z 3000/3012 03005KT 9999 SCT020 TN25/3006Z TX27/3011Z
RMK PEA

Example: see airport list